Time;durP1;ratioP1;P1;durP2;ratioP2;P2;SDS_P1;SDS_P2;PMS_P1;PMS_P2;Temp;Humidity;BMP_temperature;BMP_pressure;BME280_temperature;BME280_humidity;BME280_pressure;Samples;Min_cycle;Max_cycle;Signal;HPM_P1;HPM_P2
2022/07/09 00:02:13;;;;;;;;;;;;;;;-142.75;100.00;77664.91;4950491;29;20001;-67
2022/07/09 00:04:38;;;;;;;;;;;;;;;-142.75;100.00;77657.03;4950469;29;20437;-67
2022/07/09 00:07:03;;;;;;;;;;;;;;;-142.75;100.00;77653.09;4950310;29;19914;-66
2022/07/09 00:09:29;;;;;;;;;;;;;;;-142.75;100.00;77653.09;4950170;28;19942;-67
2022/07/09 00:11:54;;;;;;;;;;;;;;;-142.75;100.00;77651.13;4950413;29;19922;-67
2022/07/09 00:14:19;;;;;;;;;;;;;;;-142.75;100.00;77645.22;4950302;29;20304;-67
2022/07/09 00:16:44;;;;;;;;;;;;;;;-142.75;100.00;77647.19;4952438;28;19960;-67
2022/07/09 00:19:10;;;;;;;;;;;;;;;-142.75;100.00;77645.22;4953165;29;19964;-67
2022/07/09 00:21:35;;;;;;;;;;;;;;;-142.75;100.00;77643.25;4953185;29;19914;-66
2022/07/09 00:24:00;;;;;;;;;;;;;;;-142.75;100.00;77641.28;4953171;29;19918;-67
2022/07/09 00:26:25;;;;;;;;;;;;;;;-142.75;100.00;77639.31;4953364;29;19921;-66
2022/07/09 00:28:51;;;;;;;;;;;;;;;-142.75;100.00;77633.41;4952866;29;19965;-66
2022/07/09 00:31:16;;;;;;;;;;;;;;;-142.75;100.00;77643.25;4952997;29;19915;-67
2022/07/09 00:33:41;;;;;;;;;;;;;;;-142.75;100.00;77647.19;4892954;29;1744307;-66
2022/07/09 00:36:06;;;;;;;;;;;;;;;-142.75;100.00;77653.09;4954183;29;19915;-66
2022/07/09 00:38:31;;;;;;;;;;;;;;;-142.75;100.00;77653.09;4954065;28;19922;-67
2022/07/09 00:40:57;;;;;;;;;;;;;;;-142.75;100.00;77653.09;4954189;29;19915;-67
2022/07/09 00:43:22;;;;;;;;;;;;;;;-142.75;100.00;77649.16;4954167;28;19915;-66
2022/07/09 00:45:48;;;;;;;;;;;;;;;-142.75;100.00;77653.09;4954113;28;19915;-67
2022/07/09 00:48:13;;;;;;;;;;;;;;;-142.75;100.00;77651.13;4953648;28;20380;-66
2022/07/09 00:50:40;;;;;;;;;;;;;;;-142.75;100.00;77655.06;4954122;28;19915;-66
2022/07/09 00:53:07;;;;;;;;;;;;;;;-142.75;100.00;77653.09;4954032;28;19961;-67
2022/07/09 00:55:32;;;;;;;;;;;;;;;-142.75;100.00;77655.06;4954066;28;19957;-67
2022/07/09 00:57:57;;;;;;;;;;;;;;;-142.75;100.00;77662.94;4953493;28;20353;-66
2022/07/09 01:00:23;;;;;;;;;;;;;;;-142.75;100.00;77670.81;4953700;29;19946;-66
2022/07/09 01:02:49;;;;;;;;;;;;;;;-142.75;100.00;77672.78;4953716;29;19960;-67
2022/07/09 01:05:14;;;;;;;;;;;;;;;-142.75;100.00;77680.66;4953642;28;19918;-66
2022/07/09 01:07:39;;;;;;;;;;;;;;;-142.75;100.00;77676.72;4953419;29;19954;-66
2022/07/09 01:10:04;;;;;;;;;;;;;;;-142.75;100.00;77674.75;4952073;28;19936;-66
2022/07/09 01:12:30;;;;;;;;;;;;;;;-142.75;100.00;77676.72;4952419;29;20356;-66
2022/07/09 01:14:55;;;;;;;;;;;;;;;-142.75;100.00;77672.78;4953660;28;20296;-67
2022/07/09 01:17:21;;;;;;;;;;;;;;;-142.75;100.00;77670.81;4953508;29;19915;-66
2022/07/09 01:19:46;;;;;;;;;;;;;;;-142.75;100.00;77672.78;4953285;29;19997;-67
2022/07/09 01:22:11;;;;;;;;;;;;;;;-142.75;100.00;77672.78;4953477;29;19975;-67
2022/07/09 01:24:36;;;;;;;;;;;;;;;-142.75;100.00;77666.88;4953418;29;20376;-67
2022/07/09 01:27:02;;;;;;;;;;;;;;;-142.75;100.00;77657.03;4951349;28;19927;-66
2022/07/09 01:29:27;;;;;;;;;;;;;;;-142.75;100.00;77657.03;4952808;28;19918;-66
2022/07/09 01:31:52;;;;;;;;;;;;;;;-142.75;100.00;77660.97;4953256;28;19915;-66
2022/07/09 01:34:17;;;;;;;;;;;;;;;-142.75;100.00;77660.97;4953128;29;19925;-66
2022/07/09 01:36:44;;;;;;;;;;;;;;;-142.75;100.00;77664.91;4953190;28;19914;-67
2022/07/09 01:39:09;;;;;;;;;;;;;;;-142.75;100.00;77662.94;4952951;28;19914;-66
2022/07/09 01:41:34;;;;;;;;;;;;;;;-142.75;100.00;77664.91;4953176;29;19915;-66
2022/07/09 01:43:59;;;;;;;;;;;;;;;-142.75;100.00;77666.88;4953053;29;19919;-66
2022/07/09 01:46:24;;;;;;;;;;;;;;;-142.75;100.00;77664.91;4953138;29;20005;-66
2022/07/09 01:48:50;;;;;;;;;;;;;;;-142.75;100.00;77657.03;4952694;29;19958;-67
2022/07/09 01:51:15;;;;;;;;;;;;;;;-142.75;100.00;77651.13;4952982;28;19960;-66
2022/07/09 01:53:40;;;;;;;;;;;;;;;-142.75;100.00;77649.16;4952830;29;19962;-66
2022/07/09 01:56:07;;;;;;;;;;;;;;;-142.75;100.00;77639.31;4952966;29;19915;-67
2022/07/09 01:58:32;;;;;;;;;;;;;;;-142.75;100.00;77637.34;4952592;28;20429;-66
2022/07/09 02:00:57;;;;;;;;;;;;;;;-142.75;100.00;77625.53;4952833;28;19914;-66
2022/07/09 02:03:22;;;;;;;;;;;;;;;-142.75;100.00;77621.59;4952745;28;19922;-66
2022/07/09 02:05:48;;;;;;;;;;;;;;;-142.75;100.00;77621.59;4952826;29;19922;-67
2022/07/09 02:08:13;;;;;;;;;;;;;;;-142.75;100.00;77621.59;4952585;29;20395;-66
2022/07/09 02:10:38;;;;;;;;;;;;;;;-142.75;100.00;77615.69;4952740;29;19961;-66
2022/07/09 02:13:03;;;;;;;;;;;;;;;-142.75;100.00;77617.66;4952589;29;19914;-66
2022/07/09 02:15:28;;;;;;;;;;;;;;;-142.75;100.00;77625.53;4952628;29;19918;-66
2022/07/09 02:17:54;;;;;;;;;;;;;;;-142.75;100.00;77627.50;4952328;29;19922;-65
2022/07/09 02:20:20;;;;;;;;;;;;;;;-142.75;100.00;77631.44;4952522;28;20431;-67
2022/07/09 02:22:45;;;;;;;;;;;;;;;-142.75;100.00;77629.47;4952438;28;19969;-67
2022/07/09 02:25:11;;;;;;;;;;;;;;;-142.75;100.00;77625.53;4952496;28;19950;-66
2022/07/09 02:27:36;;;;;;;;;;;;;;;-142.75;100.00;77625.53;4952356;28;20005;-66
2022/07/09 02:30:02;;;;;;;;;;;;;;;-142.75;100.00;77637.34;4952126;29;19965;-66
2022/07/09 02:32:27;;;;;;;;;;;;;;;-142.75;100.00;77629.47;4952403;28;20457;-65
2022/07/09 02:34:52;;;;;;;;;;;;;;;-142.75;100.00;77641.28;4952092;29;19925;-66
2022/07/09 02:37:17;;;;;;;;;;;;;;;-142.75;100.00;77651.13;4952297;29;20364;-66
2022/07/09 02:39:43;;;;;;;;;;;;;;;-142.75;100.00;77657.03;4951721;29;19915;-66
2022/07/09 02:42:08;;;;;;;;;;;;;;;-142.75;100.00;77660.97;4952210;29;19953;-66
2022/07/09 02:44:33;;;;;;;;;;;;;;;-142.75;100.00;77668.84;4952049;28;19915;-66
2022/07/09 02:46:59;;;;;;;;;;;;;;;-142.75;100.00;77676.72;4952184;29;19914;-67
2022/07/09 02:49:24;;;;;;;;;;;;;;;-142.75;100.00;77680.66;4951800;28;19926;-66
2022/07/09 02:51:49;;;;;;;;;;;;;;;-142.75;100.00;77678.69;4952168;29;19914;-66
2022/07/09 02:54:14;;;;;;;;;;;;;;;-142.75;100.00;77664.91;4952013;29;19914;-66
2022/07/09 02:56:40;;;;;;;;;;;;;;;-142.75;100.00;77649.16;4951989;29;19925;-66
2022/07/09 02:59:05;;;;;;;;;;;;;;;-142.75;100.00;77643.25;4951729;29;20295;-66
2022/07/09 03:01:30;;;;;;;;;;;;;;;-142.75;100.00;77633.41;4952043;29;19918;-66
2022/07/09 03:03:55;;;;;;;;;;;;;;;-142.75;100.00;77625.53;4951831;29;19918;-64
2022/07/09 03:06:20;;;;;;;;;;;;;;;-142.75;100.00;77625.53;4951801;29;19914;-66
2022/07/09 03:08:46;;;;;;;;;;;;;;;-142.75;100.00;77613.72;4951704;28;19918;-66
2022/07/09 03:11:11;;;;;;;;;;;;;;;-142.75;100.00;77613.72;4951777;29;20349;-66
2022/07/09 03:13:36;;;;;;;;;;;;;;;-142.75;100.00;77609.78;4951778;28;20001;-66
2022/07/09 03:16:02;;;;;;;;;;;;;;;-142.75;100.00;77596.00;4951764;29;20380;-64
2022/07/09 03:18:27;;;;;;;;;;;;;;;-142.75;100.00;77586.16;4951429;28;19997;-64
2022/07/09 03:20:52;;;;;;;;;;;;;;;-142.75;100.00;77582.22;4951637;28;19914;-65
2022/07/09 03:23:18;;;;;;;;;;;;;;;-142.75;100.00;77574.34;4951481;29;19958;-65
2022/07/09 03:25:43;;;;;;;;;;;;;;;-142.75;100.00;77568.44;4951561;28;20281;-65
2022/07/09 03:28:08;;;;;;;;;;;;;;;-142.75;100.00;77562.53;4951203;29;20330;-65
2022/07/09 03:30:34;;;;;;;;;;;;;;;-142.75;100.00;77540.88;4950248;29;19963;-65
2022/07/09 03:35:25;;;;;;;;;;;;;;;-142.75;100.00;77534.97;5070778;22;19925;-66
2022/07/09 03:37:50;;;;;;;;;;;;;;;-142.75;100.00;77527.09;5051391;28;19917;-69
2022/07/09 03:40:16;;;;;;;;;;;;;;;-142.75;100.00;77525.13;5051921;28;19919;-69
2022/07/09 03:42:41;;;;;;;;;;;;;;;-142.75;100.00;77525.13;5052111;28;19912;-69
2022/07/09 03:45:06;;;;;;;;;;;;;;;-142.75;100.00;77515.28;5051959;28;19913;-69
2022/07/09 03:47:31;;;;;;;;;;;;;;;-142.75;100.00;77517.25;5051942;28;19920;-72
2022/07/09 03:49:57;;;;;;;;;;;;;;;-142.75;100.00;77519.22;5051603;28;19917;-71
2022/07/09 03:52:22;;;;;;;;;;;;;;;-142.75;100.00;77521.19;5037916;28;19913;-71
2022/07/09 03:54:47;;;;;;;;;;;;;;;-142.75;100.00;77521.19;5055970;28;19913;-71
2022/07/09 03:57:12;;;;;;;;;;;;;;;-142.75;100.00;77507.41;5056092;28;19919;-72
2022/07/09 03:59:38;;;;;;;;;;;;;;;-142.75;100.00;77503.47;5055729;28;19913;-72
2022/07/09 04:02:05;;;;;;;;;;;;;;;-142.75;100.00;77495.59;5056012;28;19923;-71
2022/07/09 04:04:30;;;;;;;;;;;;;;;-142.75;100.00;77493.63;5055762;28;19916;-71
2022/07/09 04:06:55;;;;;;;;;;;;;;;-142.75;100.00;77493.63;5055943;28;19912;-70
2022/07/09 04:09:21;;;;;;;;;;;;;;;-142.75;100.00;77487.72;5037480;28;19924;-71
2022/07/09 04:11:46;;;;;;;;;;;;;;;-142.75;100.00;77487.72;5055808;28;20283;-71
2022/07/09 04:14:12;;;;;;;;;;;;;;;-142.75;100.00;77475.91;5055643;28;20016;-71
2022/07/09 04:16:37;;;;;;;;;;;;;;;-142.75;100.00;77477.88;5055695;28;19967;-69
2022/07/09 04:19:02;;;;;;;;;;;;;;;-142.75;100.00;77473.94;5037395;28;19916;-71
2022/07/09 04:21:27;;;;;;;;;;;;;;;-142.75;100.00;77470.00;5055828;28;19937;-71
2022/07/09 04:23:53;;;;;;;;;;;;;;;-142.75;100.00;77470.00;5055486;28;20382;-71
2022/07/09 04:26:21;;;;;;;;;;;;;;;-142.75;100.00;77468.03;5037653;28;19913;-72
2022/07/09 04:28:46;;;;;;;;;;;;;;;-142.75;100.00;77470.00;5055158;28;19939;-72
2022/07/09 04:31:12;;;;;;;;;;;;;;;-142.75;100.00;77471.97;5055393;28;20537;-71
2022/07/09 04:33:37;;;;;;;;;;;;;;;-142.75;100.00;77470.00;5055203;28;19917;-71
2022/07/09 04:36:02;;;;;;;;;;;;;;;-142.75;100.00;77468.03;5055386;28;19936;-71
2022/07/09 04:38:28;;;;;;;;;;;;;;;-142.75;100.00;77473.94;5054994;28;20003;-71
2022/07/09 04:40:54;;;;;;;;;;;;;;;-142.75;100.00;77481.81;5055237;28;19917;-70
2022/07/09 04:43:19;;;;;;;;;;;;;;;-142.75;100.00;77483.78;5055182;28;20331;-71
2022/07/09 04:45:45;;;;;;;;;;;;;;;-142.75;100.00;77483.78;5055168;28;19913;-71
2022/07/09 04:48:10;;;;;;;;;;;;;;;-142.75;100.00;77489.69;5054713;28;19924;-71
2022/07/09 04:50:35;;;;;;;;;;;;;;;-142.75;100.00;77489.69;5055033;28;19997;-72
2022/07/09 04:53:01;;;;;;;;;;;;;;;-142.75;100.00;77495.59;5055046;28;19948;-71
2022/07/09 04:55:26;;;;;;;;;;;;;;;-142.75;100.00;77495.59;5055022;28;20310;-71
2022/07/09 04:57:51;;;;;;;;;;;;;;;-142.75;100.00;77479.84;5054773;28;19919;-72
2022/07/09 05:00:16;;;;;;;;;;;;;;;-142.75;100.00;77475.91;5054840;28;19913;-70
2022/07/09 05:02:42;;;;;;;;;;;;;;;-142.75;100.00;77471.97;5053404;28;19928;-71
2022/07/09 05:05:07;;;;;;;;;;;;;;;-142.75;100.00;77466.03;5036857;28;19919;-71
2022/07/09 05:07:33;;;;;;;;;;;;;;;-142.75;100.00;77458.16;5054852;28;19913;-71
2022/07/09 05:10:00;;;;;;;;;;;;;;;-142.75;100.00;77448.34;5036503;28;19939;-71
2022/07/09 05:12:25;;;;;;;;;;;;;;;-142.75;100.00;77442.41;5054624;28;19995;-71
2022/07/09 05:14:51;;;;;;;;;;;;;;;-142.75;100.00;77448.34;5054539;28;20016;-71
2022/07/09 05:17:16;;;;;;;;;;;;;;;-142.75;100.00;77436.50;5054512;28;19913;-71
2022/07/09 05:19:41;;;;;;;;;;;;;;;-142.75;100.00;77428.63;5036375;28;20011;-70
2022/07/09 05:22:06;;;;;;;;;;;;;;;-142.75;100.00;77422.72;5036675;28;20317;-72
2022/07/09 05:24:32;;;;;;;;;;;;;;;-142.75;100.00;77410.91;5054338;28;20405;-72
2022/07/09 05:26:57;;;;;;;;;;;;;;;-142.75;100.00;77403.03;5036505;28;20007;-71
2022/07/09 05:29:24;;;;;;;;;;;;;;;-142.75;100.00;77403.03;5053976;28;19917;-72
2022/07/09 05:31:49;;;;;;;;;;;;;;;-142.75;100.00;77397.13;5054323;28;19913;-70
2022/07/09 05:34:15;;;;;;;;;;;;;;;-142.75;100.00;77401.06;5054010;28;19975;-71
2022/07/09 05:36:40;;;;;;;;;;;;;;;-142.75;100.00;77397.13;5054234;28;19914;-71
2022/07/09 05:39:07;;;;;;;;;;;;;;;-142.75;100.00;77395.16;5035989;28;20276;-71
2022/07/09 05:41:32;;;;;;;;;;;;;;;-142.75;100.00;77389.25;5036239;28;19913;-71
2022/07/09 05:43:57;;;;;;;;;;;;;;;-142.75;100.00;77379.41;5054038;28;19912;-71
2022/07/09 05:46:22;;;;;;;;;;;;;;;-142.75;100.00;77361.69;5036189;28;19913;-71
2022/07/09 05:48:48;;;;;;;;;;;;;;;-142.75;100.00;77343.97;5035681;28;19917;-72
2022/07/09 05:51:13;;;;;;;;;;;;;;;-142.75;100.00;77324.28;5053937;28;19943;-71
2022/07/09 05:53:38;;;;;;;;;;;;;;;-142.75;100.00;77314.44;5053785;28;20386;-71
2022/07/09 05:56:04;;;;;;;;;;;;;;;-142.75;100.00;77314.44;5053836;28;19917;-70
2022/07/09 05:58:29;;;;;;;;;;;;;;;-142.75;100.00;77318.38;5035682;28;19917;-71
2022/07/09 06:00:54;;;;;;;;;;;;;;;-142.75;100.00;77320.34;5053767;28;19917;-71
2022/07/09 06:03:19;;;;;;;;;;;;;;;-142.75;100.00;77328.22;5053519;28;20414;-70
2022/07/09 06:05:44;;;;;;;;;;;;;;;-142.75;100.00;77322.31;5053656;28;19913;-70
2022/07/09 06:08:10;;;;;;;;;;;;;;;-142.75;100.00;77310.50;5053243;28;19924;-71
2022/07/09 06:10:35;;;;;;;;;;;;;;;-142.75;100.00;77286.88;5035704;28;20390;-70
2022/07/09 06:13:00;;;;;;;;;;;;;;;-142.75;100.00;77269.16;5053260;28;20425;-70
2022/07/09 06:15:26;;;;;;;;;;;;;;;-142.75;100.00;77255.38;5053199;28;19951;-71
2022/07/09 06:17:51;;;;;;;;;;;;;;;-142.75;100.00;77241.59;5053201;28;19912;-70
2022/07/09 06:20:16;;;;;;;;;;;;;;;-142.75;100.00;77247.50;5053328;28;20028;-71
2022/07/09 06:22:42;;;;;;;;;;;;;;;-142.75;100.00;77261.28;5053313;28;19939;-71
2022/07/09 06:25:07;;;;;;;;;;;;;;;-142.75;100.00;77255.38;5053347;28;19935;-71
2022/07/09 06:27:32;;;;;;;;;;;;;;;-142.75;100.00;77249.47;5035334;28;19913;-72
2022/07/09 06:29:57;;;;;;;;;;;;;;;-142.75;100.00;77259.31;5034616;28;19967;-70
2022/07/09 06:32:23;;;;;;;;;;;;;;;-142.75;100.00;77271.13;5043114;28;19970;-71
2022/07/09 06:34:48;;;;;;;;;;;;;;;-142.75;100.00;77271.13;5038201;28;19917;-71
2022/07/09 06:37:13;;;;;;;;;;;;;;;-142.75;100.00;77263.25;5023653;28;19921;-71
2022/07/09 06:39:44;;;;;;;;;;;;;;;-142.75;100.00;77239.63;5025996;28;19956;-71
2022/07/09 06:42:09;;;;;;;;;;;;;;;-142.75;100.00;77231.75;5043746;28;19925;-71
2022/07/09 06:44:35;;;;;;;;;;;;;;;-142.75;100.00;77204.19;5035572;28;20020;-71
2022/07/09 06:47:00;;;;;;;;;;;;;;;-142.75;100.00;77196.31;5015184;28;19914;-71
2022/07/09 06:49:25;;;;;;;;;;;;;;;-142.75;100.00;77192.38;5014977;28;20374;-71
2022/07/09 06:51:51;;;;;;;;;;;;;;;-142.75;100.00;77186.47;5032865;28;19920;-70
2022/07/09 06:54:16;;;;;;;;;;;;;;;-142.75;100.00;77206.16;5032819;28;19917;-71
2022/07/09 06:56:41;;;;;;;;;;;;;;;-142.75;100.00;77239.63;5032815;28;19939;-71
2022/07/09 06:59:06;;;;;;;;;;;;;;;-142.75;100.00;77247.50;5032526;28;19920;-71
2022/07/09 07:01:31;;;;;;;;;;;;;;;-142.75;100.00;77249.47;5040180;28;20346;-70
2022/07/09 07:03:57;;;;;;;;;;;;;;;-142.75;100.00;77249.47;5037386;28;19952;-71
2022/07/09 07:06:22;;;;;;;;;;;;;;;-142.75;100.00;77249.47;5032638;28;20330;-70
2022/07/09 07:08:47;;;;;;;;;;;;;;;-142.75;100.00;77241.59;5032336;28;19956;-71
2022/07/09 07:11:12;;;;;;;;;;;;;;;-142.75;100.00;77237.66;5032614;28;19913;-69
2022/07/09 07:13:37;;;;;;;;;;;;;;;-142.75;100.00;77223.88;5032448;28;19913;-69
2022/07/09 07:16:03;;;;;;;;;;;;;;;-142.75;100.00;77221.91;5031571;28;19929;-69
2022/07/09 07:18:28;;;;;;;;;;;;;;;-142.75;100.00;77212.06;5031069;28;19913;-69
2022/07/09 07:20:53;;;;;;;;;;;;;;;-142.75;100.00;77186.47;5031364;28;19940;-69
2022/07/09 07:23:18;;;;;;;;;;;;;;;-142.75;100.00;77180.56;5031381;28;19917;-71
2022/07/09 07:25:44;;;;;;;;;;;;;;;-142.75;100.00;77188.44;5030527;28;19917;-70
2022/07/09 07:28:09;;;;;;;;;;;;;;;-142.75;100.00;77200.25;5031070;28;19940;-70
2022/07/09 07:30:35;;;;;;;;;;;;;;;-142.75;100.00;77202.22;5031310;28;19913;-70
2022/07/09 07:33:00;;;;;;;;;;;;;;;-142.75;100.00;77204.19;5013594;28;19917;-70
2022/07/09 07:35:25;;;;;;;;;;;;;;;-142.75;100.00;77200.25;5013875;28;20431;-70
2022/07/09 07:37:50;;;;;;;;;;;;;;;-142.75;100.00;77190.41;5031187;28;19920;-70
2022/07/09 07:40:16;;;;;;;;;;;;;;;-142.75;100.00;77180.56;5031206;28;19920;-69
2022/07/09 07:42:42;;;;;;;;;;;;;;;-142.75;100.00;77154.97;5031357;28;19913;-70
2022/07/09 07:45:07;;;;;;;;;;;;;;;-142.75;100.00;77154.97;5031072;28;20275;-70
2022/07/09 07:47:33;;;;;;;;;;;;;;;-142.75;100.00;77149.06;5013294;28;20383;-70
2022/07/09 07:49:59;;;;;;;;;;;;;;;-142.75;100.00;77147.09;5031129;28;19917;-70
2022/07/09 07:52:25;;;;;;;;;;;;;;;-142.75;100.00;77129.38;5013452;28;20004;-69
2022/07/09 07:54:50;;;;;;;;;;;;;;;-142.75;100.00;77101.81;5031145;28;20020;-70
2022/07/09 07:57:15;;;;;;;;;;;;;;;-142.75;100.00;77070.31;5031233;28;19920;-71
2022/07/09 07:59:40;;;;;;;;;;;;;;;-142.75;100.00;77070.31;5012961;28;19968;-69
2022/07/09 08:02:05;;;;;;;;;;;;;;;-142.75;100.00;77070.31;5016931;28;19928;-70
2022/07/09 08:04:31;;;;;;;;;;;;;;;-142.75;100.00;77084.09;5030891;28;19917;-70
2022/07/09 08:06:56;;;;;;;;;;;;;;;-142.75;100.00;77113.63;5031076;28;19959;-70
2022/07/09 08:09:21;;;;;;;;;;;;;;;-142.75;100.00;77115.59;5030733;28;19917;-70
2022/07/09 08:11:47;;;;;;;;;;;;;;;-142.75;100.00;77131.34;5031084;28;20405;-70
2022/07/09 08:14:12;;;;;;;;;;;;;;;-142.75;100.00;77137.25;5030918;28;19920;-69
2022/07/09 08:16:37;;;;;;;;;;;;;;;-142.75;100.00;77145.13;5031517;28;19968;-71
2022/07/09 08:19:02;;;;;;;;;;;;;;;-142.75;100.00;77141.19;5031733;28;19917;-72
2022/07/09 08:21:28;;;;;;;;;;;;;;;-142.75;100.00;77151.03;5031329;28;20393;-70
2022/07/09 08:23:56;;;;;;;;;;;;;;;-142.75;100.00;77141.19;5013849;28;20385;-73
2022/07/09 08:26:23;;;;;;;;;;;;;;;-142.75;100.00;77121.50;5031924;28;19967;-72
2022/07/09 08:28:49;;;;;;;;;;;;;;;-142.75;100.00;77082.13;5031646;28;20378;-72
2022/07/09 08:31:15;;;;;;;;;;;;;;;-142.75;100.00;77060.47;5032537;28;19917;-72
2022/07/09 08:33:40;;;;;;;;;;;;;;;-142.75;100.00;77050.63;5031626;28;20352;-71
2022/07/09 08:36:05;;;;;;;;;;;;;;;-142.75;100.00;77003.38;5014123;28;19914;-73
2022/07/09 08:38:31;;;;;;;;;;;;;;;-142.75;100.00;76960.06;5035122;28;20330;-71
2022/07/09 08:40:58;;;;;;;;;;;;;;;-142.75;100.00;76960.06;5035051;28;20401;-72
2022/07/09 08:43:23;;;;;;;;;;;;;;;-142.75;100.00;76977.78;5035386;28;19984;-71
2022/07/09 08:45:50;;;;;;;;;;;;;;;-142.75;100.00;76979.75;5035335;28;19913;-72
2022/07/09 08:48:16;;;;;;;;;;;;;;;-142.75;100.00;76981.72;5034787;28;19917;-71
2022/07/09 08:50:41;;;;;;;;;;;;;;;-142.75;100.00;76967.94;5035236;28;19921;-72
2022/07/09 08:53:07;;;;;;;;;;;;;;;-142.75;100.00;76942.34;5035274;28;19913;-70
2022/07/09 08:55:33;;;;;;;;;;;;;;;-142.75;100.00;76914.78;5017423;28;19949;-73
2022/07/09 08:57:58;;;;;;;;;;;;;;;-142.75;100.00;76881.31;5034881;28;19994;-71
2022/07/09 09:00:23;;;;;;;;;;;;;;;-142.75;100.00;76849.81;5035086;28;19944;-72
2022/07/09 09:02:48;;;;;;;;;;;;;;;-142.75;100.00;76822.25;5017215;28;19913;-71
2022/07/09 09:05:14;;;;;;;;;;;;;;;-142.75;100.00;76804.53;5034905;28;20303;-72
2022/07/09 09:07:40;;;;;;;;;;;;;;;-142.75;100.00;76810.44;5035019;28;20401;-73
2022/07/09 09:10:05;;;;;;;;;;;;;;;-142.75;100.00;76802.56;5034555;28;19917;-73
2022/07/09 09:12:30;;;;;;;;;;;;;;;-142.75;100.00;76775.03;5034866;28;19913;-72
2022/07/09 09:14:56;;;;;;;;;;;;;;;-142.75;100.00;76763.22;5016965;28;19928;-71
2022/07/09 09:17:21;;;;;;;;;;;;;;;-142.75;100.00;76759.28;5016967;28;20272;-72
2022/07/09 09:19:46;;;;;;;;;;;;;;;-142.75;100.00;76767.16;5016728;28;19917;-72
2022/07/09 09:22:14;;;;;;;;;;;;;;;-142.75;100.00;76751.41;5034687;28;19917;-71
2022/07/09 09:24:41;;;;;;;;;;;;;;;-142.75;100.00;76767.16;5034386;28;19913;-71
2022/07/09 09:27:06;;;;;;;;;;;;;;;-142.75;100.00;76757.31;5016699;28;19996;-72
2022/07/09 09:29:31;;;;;;;;;;;;;;;-142.75;100.00;76743.53;5016155;28;20068;-72
2022/07/09 09:31:56;;;;;;;;;;;;;;;-142.75;100.00;76778.97;5034407;28;19913;-72
2022/07/09 09:36:54;;;;;;;;;;;;;;;-142.75;100.00;76765.19;4994043;22;19933;-67
2022/07/09 09:39:26;;;;;;;;;;;;;;;-142.75;100.00;76739.59;4971233;28;19966;-66
2022/07/09 09:41:53;;;;;;;;;;;;;;;-142.75;100.00;76739.59;4972475;28;20001;-68
2022/07/09 09:44:24;;;;;;;;;;;;;;;-142.75;100.00;76710.06;4972377;28;19914;-67
2022/07/09 09:46:49;;;;;;;;;;;;;;;-142.75;100.00;76690.38;4951876;28;19950;-68
2022/07/09 09:49:15;;;;;;;;;;;;;;;-142.75;100.00;76651.00;4950582;28;20339;-67
2022/07/09 09:51:59;;;;;;;;;;;;;;;-142.75;100.00;76678.56;4952952;28;19922;-67
2022/07/09 09:54:24;;;;;;;;;;;;;;;-142.75;100.00;76714.00;4952900;29;20000;-67
2022/07/09 09:56:49;;;;;;;;;;;;;;;-142.75;100.00;76692.34;4951678;29;20401;-66
2022/07/09 09:59:15;;;;;;;;;;;;;;;-142.75;100.00;76688.41;4951394;28;19922;-66
2022/07/09 10:01:41;;;;;;;;;;;;;;;-142.75;100.00;76643.13;4951564;29;19914;-66
2022/07/09 10:04:08;;;;;;;;;;;;;;;-142.75;100.00;76613.59;4950145;29;19921;-67
2022/07/09 10:06:34;;;;;;;;;;;;;;;-142.75;100.00;76649.03;4951409;29;19923;-67
2022/07/09 10:09:01;;;;;;;;;;;;;;;-142.75;100.00;76706.13;4952496;28;19918;-67
2022/07/09 10:11:37;;;;;;;;;;;;;;;-142.75;100.00;76735.66;4952816;28;19922;-67
2022/07/09 10:14:02;;;;;;;;;;;;;;;-142.75;100.00;76704.16;4952747;28;19960;-67
2022/07/09 10:16:33;;;;;;;;;;;;;;;-142.75;100.00;76658.88;4952535;28;19919;-67
2022/07/09 10:18:58;;;;;;;;;;;;;;;-142.75;100.00;76686.44;4959210;28;19956;-66
2022/07/09 10:21:34;;;;;;;;;;;;;;;-142.75;100.00;76763.22;4951848;28;19918;-67
2022/07/09 10:23:59;;;;;;;;;;;;;;;-142.75;100.00;76794.69;4952380;28;19922;-67
2022/07/09 10:26:42;;;;;;;;;;;;;;;-142.75;100.00;76788.81;4952066;29;19915;-67
2022/07/09 10:29:23;;;;;;;;;;;;;;;-142.75;100.00;76786.84;4951968;28;20477;-67
2022/07/09 10:31:49;;;;;;;;;;;;;;;-142.75;100.00;76775.03;4988566;28;19937;-67
2022/07/09 10:34:23;;;;;;;;;;;;;;;-142.75;100.00;76749.44;4971471;28;20368;-66
2022/07/09 10:36:58;;;;;;;;;;;;;;;-142.75;100.00;76755.34;4971443;28;20028;-67
2022/07/09 10:39:24;;;;;;;;;;;;;;;-142.75;100.00;76765.19;4970164;28;20062;-67
2022/07/09 10:41:58;;;;;;;;;;;;;;;-142.75;99.50;76767.16;4969801;28;19998;-66
2022/07/09 10:44:27;;;;;;;;;;;;;;;-142.75;100.00;76719.91;4967180;28;19936;-65
2022/07/09 10:46:55;;;;;;;;;;;;;;;-142.75;99.20;76649.03;5045761;28;20058;-66
2022/07/09 10:49:21;;;;;;;;;;;;;;;-142.75;93.70;76621.47;5052431;28;20298;-66
2022/07/09 10:51:47;;;;;;;;;;;;;;;-142.75;99.71;76649.03;5052587;28;19920;-65
2022/07/09 10:54:16;;;;;;;;;;;;;;;-142.75;94.94;76595.88;5052665;28;19915;-66
2022/07/09 10:56:41;;;;;;;;;;;;;;;-142.75;89.86;76627.38;5052490;28;19982;-65
2022/07/09 10:59:06;;;;;;;;;;;;;;;-142.75;93.65;76658.88;5052303;28;20408;-64
2022/07/09 11:01:31;;;;;;;;;;;;;;;-142.75;97.23;76706.13;4965709;28;19945;-67
2022/07/09 11:03:58;;;;;;;;;;;;;;;-142.75;100.00;76690.38;4951777;29;19922;-66
2022/07/09 11:06:23;;;;;;;;;;;;;;;-142.75;100.00;76660.84;4991558;28;19917;-66
2022/07/09 11:08:48;;;;;;;;;;;;;;;-142.75;100.00;76643.13;5025569;28;19971;-67
2022/07/09 11:11:20;;;;;;;;;;;;;;;-142.75;94.80;76629.34;4971190;28;19914;-66
2022/07/09 11:13:49;;;;;;;;;;;;;;;-142.75;94.86;76607.69;4965651;28;19918;-66
2022/07/09 11:16:21;;;;;;;;;;;;;;;-142.75;100.00;76676.59;4970712;28;19918;-66
2022/07/09 11:18:46;;;;;;;;;;;;;;;-142.75;100.00;76786.84;4970322;28;20009;-67
2022/07/09 11:21:11;;;;;;;;;;;;;;;-142.75;100.00;76759.28;5029250;28;20003;-65
2022/07/09 11:23:36;;;;;;;;;;;;;;;-142.75;100.00;76743.53;5031977;28;19917;-66
2022/07/09 11:26:01;;;;;;;;;;;;;;;-142.75;100.00;76782.91;5031971;28;20291;-67
2022/07/09 11:28:27;;;;;;;;;;;;;;;-142.75;100.00;76816.34;5031723;28;19921;-66
2022/07/09 11:30:58;;;;;;;;;;;;;;;-142.75;100.00;76773.06;5032064;28;19913;-65
2022/07/09 11:33:24;;;;;;;;;;;;;;;-142.75;100.00;76737.63;5031965;28;19913;-66
2022/07/09 11:35:49;;;;;;;;;;;;;;;-142.75;100.00;76727.78;4975600;28;19925;-66
2022/07/09 11:38:14;;;;;;;;;;;;;;;-142.75;100.00;76780.94;4970269;28;19914;-65
2022/07/09 11:40:40;;;;;;;;;;;;;;;-142.75;100.00;76843.91;4970551;28;19949;-66
2022/07/09 11:43:12;;;;;;;;;;;;;;;-142.75;100.00;76794.69;4970515;28;20284;-66
2022/07/09 11:45:37;;;;;;;;;;;;;;;-142.75;100.00;76775.03;4970296;28;20021;-65
2022/07/09 11:48:05;;;;;;;;;;;;;;;-142.75;100.00;76765.19;4968693;28;20386;-66
2022/07/09 11:50:31;;;;;;;;;;;;;;;-142.75;100.00;76743.53;4970399;28;19945;-66
2022/07/09 11:52:56;;;;;;;;;;;;;;;-142.75;100.00;76767.16;4970304;28;20019;-66
2022/07/09 11:55:30;;;;;;;;;;;;;;;-142.75;100.00;76761.25;4962727;28;19915;-65
2022/07/09 11:57:56;;;;;;;;;;;;;;;-142.75;100.00;76743.53;4950721;28;19925;-66
2022/07/09 12:00:29;;;;;;;;;;;;;;;-142.75;100.00;76682.50;4950865;28;20384;-65
2022/07/09 12:02:55;;;;;;;;;;;;;;;-142.75;94.81;76652.97;4951001;28;19915;-66
2022/07/09 12:05:39;;;;;;;;;;;;;;;-142.75;90.96;76643.13;4950947;28;20356;-66
2022/07/09 12:08:07;;;;;;;;;;;;;;;-142.75;96.94;76649.03;4950715;28;19915;-67
2022/07/09 12:10:36;;;;;;;;;;;;;;;-142.75;100.00;76645.09;4950909;28;19950;-66
2022/07/09 12:13:02;;;;;;;;;;;;;;;-142.75;94.56;76617.53;4953310;28;19918;-66
2022/07/09 12:15:28;;;;;;;;;;;;;;;-142.75;99.45;76633.28;4954302;28;20410;-66
2022/07/09 12:17:54;;;;;;;;;;;;;;;-142.75;99.95;76625.41;4954125;28;19915;-64